sensor_id;sensor_type;location;lat;lon;timestamp;P1;durP1;ratioP1;P2;durP2;ratioP2
74291;SDS011;62687;55.738;37.516;2023-06-14T00:02:43;15.55;;;4.05;;
74291;SDS011;62687;55.738;37.516;2023-06-14T00:05:27;15.20;;;3.95;;
74291;SDS011;62687;55.738;37.516;2023-06-14T00:08:12;11.88;;;3.80;;
74291;SDS011;62687;55.738;37.516;2023-06-14T00:10:48;22.58;;;4.10;;
74291;SDS011;62687;55.738;37.516;2023-06-14T00:13:32;20.70;;;4.22;;
74291;SDS011;62687;55.738;37.516;2023-06-14T00:16:16;16.15;;;4.20;;
74291;SDS011;62687;55.738;37.516;2023-06-14T00:19:01;13.40;;;4.05;;
74291;SDS011;62687;55.738;37.516;2023-06-14T00:21:48;14.10;;;4.32;;
74291;SDS011;62687;55.738;37.516;2023-06-14T00:27:17;13.50;;;3.92;;
74291;SDS011;62687;55.738;37.516;2023-06-14T00:30:01;17.00;;;4.72;;
74291;SDS011;62687;55.738;37.516;2023-06-14T00:32:45;22.35;;;4.60;;
74291;SDS011;62687;55.738;37.516;2023-06-14T00:35:29;16.67;;;4.32;;
74291;SDS011;62687;55.738;37.516;2023-06-14T00:38:14;20.15;;;4.50;;
74291;SDS011;62687;55.738;37.516;2023-06-14T00:40:58;11.65;;;4.07;;
74291;SDS011;62687;55.738;37.516;2023-06-14T00:43:41;15.88;;;3.90;;
74291;SDS011;62687;55.738;37.516;2023-06-14T00:46:25;19.80;;;4.40;;
74291;SDS011;62687;55.738;37.516;2023-06-14T00:49:09;17.50;;;4.53;;
74291;SDS011;62687;55.738;37.516;2023-06-14T00:51:54;15.48;;;4.57;;
74291;SDS011;62687;55.738;37.516;2023-06-14T00:54:39;19.23;;;4.72;;
74291;SDS011;62687;55.738;37.516;2023-06-14T00:57:23;20.90;;;4.50;;
74291;SDS011;62687;55.738;37.516;2023-06-14T01:00:08;18.02;;;4.25;;
74291;SDS011;62687;55.738;37.516;2023-06-14T01:02:52;22.60;;;4.60;;
74291;SDS011;62687;55.738;37.516;2023-06-14T01:05:37;24.08;;;5.00;;
74291;SDS011;62687;55.738;37.516;2023-06-14T01:08:24;13.82;;;4.28;;
74291;SDS011;62687;55.738;37.516;2023-06-14T01:11:11;19.73;;;4.47;;
74291;SDS011;62687;55.738;37.516;2023-06-14T01:13:58;35.85;;;6.40;;
74291;SDS011;62687;55.738;37.516;2023-06-14T01:16:43;16.33;;;4.57;;
74291;SDS011;62687;55.738;37.516;2023-06-14T01:19:28;34.40;;;5.53;;
74291;SDS011;62687;55.738;37.516;2023-06-14T01:22:13;20.92;;;5.03;;
74291;SDS011;62687;55.738;37.516;2023-06-14T01:24:57;21.98;;;4.65;;
74291;SDS011;62687;55.738;37.516;2023-06-14T01:27:42;20.83;;;4.70;;
74291;SDS011;62687;55.738;37.516;2023-06-14T01:30:26;23.67;;;5.22;;
74291;SDS011;62687;55.738;37.516;2023-06-14T01:33:14;33.38;;;5.88;;
74291;SDS011;62687;55.738;37.516;2023-06-14T01:35:58;31.73;;;5.25;;
74291;SDS011;62687;55.738;37.516;2023-06-14T01:38:43;30.83;;;5.63;;
74291;SDS011;62687;55.738;37.516;2023-06-14T01:41:27;31.95;;;5.88;;
74291;SDS011;62687;55.738;37.516;2023-06-14T01:46:56;33.67;;;7.25;;
74291;SDS011;62687;55.738;37.516;2023-06-14T01:49:41;33.88;;;6.78;;
74291;SDS011;62687;55.738;37.516;2023-06-14T01:52:25;24.55;;;6.32;;
74291;SDS011;62687;55.738;37.516;2023-06-14T01:55:09;34.88;;;7.07;;
74291;SDS011;62687;55.738;37.516;2023-06-14T01:57:53;25.05;;;6.32;;
74291;SDS011;62687;55.738;37.516;2023-06-14T02:00:37;24.98;;;5.82;;
74291;SDS011;62687;55.738;37.516;2023-06-14T02:03:21;33.33;;;5.13;;
74291;SDS011;62687;55.738;37.516;2023-06-14T02:06:05;28.02;;;6.18;;
74291;SDS011;62687;55.738;37.516;2023-06-14T02:08:49;25.10;;;6.00;;
74291;SDS011;62687;55.738;37.516;2023-06-14T02:11:33;24.40;;;5.80;;
74291;SDS011;62687;55.738;37.516;2023-06-14T02:14:17;19.67;;;5.28;;
74291;SDS011;62687;55.738;37.516;2023-06-14T02:16:50;19.83;;;5.40;;
74291;SDS011;62687;55.738;37.516;2023-06-14T02:19:34;24.42;;;4.97;;
74291;SDS011;62687;55.738;37.516;2023-06-14T02:22:18;35.15;;;7.60;;
74291;SDS011;62687;55.738;37.516;2023-06-14T02:25:04;21.50;;;5.22;;
74291;SDS011;62687;55.738;37.516;2023-06-14T02:27:49;21.52;;;5.80;;
74291;SDS011;62687;55.738;37.516;2023-06-14T02:30:33;26.48;;;6.45;;
74291;SDS011;62687;55.738;37.516;2023-06-14T02:33:17;28.38;;;6.13;;
74291;SDS011;62687;55.738;37.516;2023-06-14T02:36:01;34.00;;;6.07;;
74291;SDS011;62687;55.738;37.516;2023-06-14T02:41:30;33.95;;;6.90;;
74291;SDS011;62687;55.738;37.516;2023-06-14T02:44:14;26.80;;;5.80;;
74291;SDS011;62687;55.738;37.516;2023-06-14T02:46:58;26.95;;;6.47;;
74291;SDS011;62687;55.738;37.516;2023-06-14T02:49:44;27.20;;;6.30;;
74291;SDS011;62687;55.738;37.516;2023-06-14T02:52:30;27.92;;;5.40;;
74291;SDS011;62687;55.738;37.516;2023-06-14T02:55:16;17.73;;;5.43;;
74291;SDS011;62687;55.738;37.516;2023-06-14T02:58:00;18.38;;;5.30;;
74291;SDS011;62687;55.738;37.516;2023-06-14T03:00:44;19.83;;;5.10;;
74291;SDS011;62687;55.738;37.516;2023-06-14T03:03:28;19.48;;;5.40;;
74291;SDS011;62687;55.738;37.516;2023-06-14T03:06:12;13.45;;;5.15;;
74291;SDS011;62687;55.738;37.516;2023-06-14T03:08:57;15.55;;;5.15;;
74291;SDS011;62687;55.738;37.516;2023-06-14T03:11:44;17.83;;;5.70;;
74291;SDS011;62687;55.738;37.516;2023-06-14T03:14:29;17.75;;;5.90;;
74291;SDS011;62687;55.738;37.516;2023-06-14T03:17:13;18.63;;;5.53;;
74291;SDS011;62687;55.738;37.516;2023-06-14T03:19:56;17.52;;;5.68;;
74291;SDS011;62687;55.738;37.516;2023-06-14T03:22:40;21.20;;;5.80;;
74291;SDS011;62687;55.738;37.516;2023-06-14T03:25:24;17.58;;;5.18;;
74291;SDS011;62687;55.738;37.516;2023-06-14T03:28:09;18.27;;;5.00;;
74291;SDS011;62687;55.738;37.516;2023-06-14T03:30:53;22.02;;;5.80;;
74291;SDS011;62687;55.738;37.516;2023-06-14T03:33:37;24.85;;;5.70;;
74291;SDS011;62687;55.738;37.516;2023-06-14T03:36:21;18.40;;;6.32;;
74291;SDS011;62687;55.738;37.516;2023-06-14T03:39:06;20.02;;;6.15;;
74291;SDS011;62687;55.738;37.516;2023-06-14T03:41:51;14.40;;;5.65;;
74291;SDS011;62687;55.738;37.516;2023-06-14T03:44:35;14.65;;;5.50;;
74291;SDS011;62687;55.738;37.516;2023-06-14T03:47:19;19.38;;;5.43;;
74291;SDS011;62687;55.738;37.516;2023-06-14T03:50:03;18.15;;;5.40;;
74291;SDS011;62687;55.738;37.516;2023-06-14T03:52:48;11.90;;;4.97;;
74291;SDS011;62687;55.738;37.516;2023-06-14T03:58:16;12.75;;;5.30;;
74291;SDS011;62687;55.738;37.516;2023-06-14T04:01:00;20.88;;;4.97;;
74291;SDS011;62687;55.738;37.516;2023-06-14T04:03:44;21.08;;;6.07;;
74291;SDS011;62687;55.738;37.516;2023-06-14T04:06:28;18.67;;;5.80;;
74291;SDS011;62687;55.738;37.516;2023-06-14T04:09:15;22.90;;;5.60;;
74291;SDS011;62687;55.738;37.516;2023-06-14T04:11:59;14.32;;;5.43;;
74291;SDS011;62687;55.738;37.516;2023-06-14T04:14:43;14.95;;;5.93;;
74291;SDS011;62687;55.738;37.516;2023-06-14T04:17:27;15.82;;;5.38;;
74291;SDS011;62687;55.738;37.516;2023-06-14T04:20:11;11.02;;;4.90;;
74291;SDS011;62687;55.738;37.516;2023-06-14T04:22:56;17.80;;;5.25;;
74291;SDS011;62687;55.738;37.516;2023-06-14T04:25:41;18.27;;;5.07;;
74291;SDS011;62687;55.738;37.516;2023-06-14T04:28:28;15.30;;;5.07;;
74291;SDS011;62687;55.738;37.516;2023-06-14T04:31:12;15.65;;;5.07;;
74291;SDS011;62687;55.738;37.516;2023-06-14T04:33:56;21.85;;;5.05;;
74291;SDS011;62687;55.738;37.516;2023-06-14T04:36:41;10.75;;;5.00;;
74291;SDS011;62687;55.738;37.516;2023-06-14T04:39:25;18.27;;;5.68;;
74291;SDS011;62687;55.738;37.516;2023-06-14T04:42:10;16.65;;;5.50;;
74291;SDS011;62687;55.738;37.516;2023-06-14T04:47:39;16.15;;;5.93;;
74291;SDS011;62687;55.738;37.516;2023-06-14T04:50:24;12.32;;;5.13;;
74291;SDS011;62687;55.738;37.516;2023-06-14T04:53:08;16.00;;;5.10;;
74291;SDS011;62687;55.738;37.516;2023-06-14T04:55:52;14.27;;;5.30;;
74291;SDS011;62687;55.738;37.516;2023-06-14T04:58:36;10.52;;;4.97;;
74291;SDS011;62687;55.738;37.516;2023-06-14T05:01:22;11.95;;;5.00;;
74291;SDS011;62687;55.738;37.516;2023-06-14T05:04:06;13.55;;;4.93;;
74291;SDS011;62687;55.738;37.516;2023-06-14T05:06:50;18.75;;;4.93;;
74291;SDS011;62687;55.738;37.516;2023-06-14T05:09:35;14.48;;;4.97;;
74291;SDS011;62687;55.738;37.516;2023-06-14T05:12:19;12.38;;;5.03;;
74291;SDS011;62687;55.738;37.516;2023-06-14T05:15:04;13.30;;;4.43;;
74291;SDS011;62687;55.738;37.516;2023-06-14T05:17:48;20.52;;;4.43;;
74291;SDS011;62687;55.738;37.516;2023-06-14T05:20:38;16.00;;;5.03;;
74291;SDS011;62687;55.738;37.516;2023-06-14T05:23:22;16.63;;;4.40;;
74291;SDS011;62687;55.738;37.516;2023-06-14T05:26:06;15.43;;;4.68;;
74291;SDS011;62687;55.738;37.516;2023-06-14T05:28:50;11.13;;;4.30;;
74291;SDS011;62687;55.738;37.516;2023-06-14T05:31:36;12.65;;;4.55;;
74291;SDS011;62687;55.738;37.516;2023-06-14T05:34:20;15.00;;;4.47;;
74291;SDS011;62687;55.738;37.516;2023-06-14T05:37:04;15.20;;;4.50;;
74291;SDS011;62687;55.738;37.516;2023-06-14T05:39:48;14.85;;;4.13;;
74291;SDS011;62687;55.738;37.516;2023-06-14T05:42:32;15.13;;;3.95;;
74291;SDS011;62687;55.738;37.516;2023-06-14T05:45:16;11.30;;;3.80;;
74291;SDS011;62687;55.738;37.516;2023-06-14T05:48:00;15.13;;;3.88;;
74291;SDS011;62687;55.738;37.516;2023-06-14T05:50:44;13.00;;;3.67;;
74291;SDS011;62687;55.738;37.516;2023-06-14T05:53:28;7.15;;;3.42;;
74291;SDS011;62687;55.738;37.516;2023-06-14T05:56:12;11.20;;;3.85;;
74291;SDS011;62687;55.738;37.516;2023-06-14T05:58:56;10.65;;;3.20;;
74291;SDS011;62687;55.738;37.516;2023-06-14T06:01:41;6.00;;;2.83;;
74291;SDS011;62687;55.738;37.516;2023-06-14T06:04:25;9.80;;;3.42;;
74291;SDS011;62687;55.738;37.516;2023-06-14T06:07:09;21.20;;;4.57;;
74291;SDS011;62687;55.738;37.516;2023-06-14T06:09:53;11.35;;;2.58;;
74291;SDS011;62687;55.738;37.516;2023-06-14T06:12:37;12.70;;;3.17;;
74291;SDS011;62687;55.738;37.516;2023-06-14T06:15:21;13.85;;;6.38;;
74291;SDS011;62687;55.738;37.516;2023-06-14T06:18:05;7.65;;;3.22;;
74291;SDS011;62687;55.738;37.516;2023-06-14T06:20:50;9.38;;;2.83;;
74291;SDS011;62687;55.738;37.516;2023-06-14T06:23:34;12.25;;;3.47;;
74291;SDS011;62687;55.738;37.516;2023-06-14T06:26:19;10.35;;;3.72;;
74291;SDS011;62687;55.738;37.516;2023-06-14T06:29:03;8.07;;;4.30;;
74291;SDS011;62687;55.738;37.516;2023-06-14T06:31:47;15.25;;;5.82;;
74291;SDS011;62687;55.738;37.516;2023-06-14T06:34:31;10.18;;;2.92;;
74291;SDS011;62687;55.738;37.516;2023-06-14T06:37:15;7.70;;;3.10;;
74291;SDS011;62687;55.738;37.516;2023-06-14T06:39:59;8.98;;;3.10;;
74291;SDS011;62687;55.738;37.516;2023-06-14T06:42:43;12.30;;;4.80;;
74291;SDS011;62687;55.738;37.516;2023-06-14T06:45:27;7.68;;;2.58;;
74291;SDS011;62687;55.738;37.516;2023-06-14T06:48:11;5.10;;;2.30;;
74291;SDS011;62687;55.738;37.516;2023-06-14T06:50:55;9.98;;;3.47;;
74291;SDS011;62687;55.738;37.516;2023-06-14T06:53:41;8.75;;;3.83;;
74291;SDS011;62687;55.738;37.516;2023-06-14T06:56:26;8.98;;;2.78;;
74291;SDS011;62687;55.738;37.516;2023-06-14T06:59:10;7.93;;;2.85;;
74291;SDS011;62687;55.738;37.516;2023-06-14T07:01:54;11.57;;;2.55;;
74291;SDS011;62687;55.738;37.516;2023-06-14T07:04:38;14.50;;;7.13;;
74291;SDS011;62687;55.738;37.516;2023-06-14T07:07:22;10.27;;;3.45;;
74291;SDS011;62687;55.738;37.516;2023-06-14T07:10:06;9.80;;;3.70;;
74291;SDS011;62687;55.738;37.516;2023-06-14T07:12:51;12.27;;;3.60;;
74291;SDS011;62687;55.738;37.516;2023-06-14T07:15:35;13.70;;;2.53;;
74291;SDS011;62687;55.738;37.516;2023-06-14T07:18:19;12.23;;;3.33;;
74291;SDS011;62687;55.738;37.516;2023-06-14T07:21:03;8.25;;;3.05;;
74291;SDS011;62687;55.738;37.516;2023-06-14T07:23:47;5.68;;;2.45;;
74291;SDS011;62687;55.738;37.516;2023-06-14T07:26:31;12.52;;;4.38;;
74291;SDS011;62687;55.738;37.516;2023-06-14T07:29:15;10.75;;;3.30;;
74291;SDS011;62687;55.738;37.516;2023-06-14T07:34:44;8.75;;;3.20;;
74291;SDS011;62687;55.738;37.516;2023-06-14T07:37:28;8.73;;;3.15;;
74291;SDS011;62687;55.738;37.516;2023-06-14T07:40:12;10.80;;;2.60;;
74291;SDS011;62687;55.738;37.516;2023-06-14T07:42:56;12.43;;;2.92;;
74291;SDS011;62687;55.738;37.516;2023-06-14T07:45:40;8.20;;;2.83;;
74291;SDS011;62687;55.738;37.516;2023-06-14T07:48:24;8.73;;;2.30;;
74291;SDS011;62687;55.738;37.516;2023-06-14T07:51:08;7.00;;;2.67;;
74291;SDS011;62687;55.738;37.516;2023-06-14T07:53:52;6.60;;;2.28;;
74291;SDS011;62687;55.738;37.516;2023-06-14T07:56:36;7.85;;;3.22;;
74291;SDS011;62687;55.738;37.516;2023-06-14T07:59:20;7.05;;;3.42;;
74291;SDS011;62687;55.738;37.516;2023-06-14T08:02:05;12.73;;;4.90;;
74291;SDS011;62687;55.738;37.516;2023-06-14T08:07:33;8.18;;;2.40;;
74291;SDS011;62687;55.738;37.516;2023-06-14T08:10:17;14.40;;;4.20;;
74291;SDS011;62687;55.738;37.516;2023-06-14T08:13:02;8.63;;;3.47;;
74291;SDS011;62687;55.738;37.516;2023-06-14T08:15:46;4.75;;;2.33;;
74291;SDS011;62687;55.738;37.516;2023-06-14T08:18:29;5.95;;;2.47;;
74291;SDS011;62687;55.738;37.516;2023-06-14T08:21:14;10.18;;;4.65;;
74291;SDS011;62687;55.738;37.516;2023-06-14T08:23:58;7.47;;;2.17;;
74291;SDS011;62687;55.738;37.516;2023-06-14T08:29:26;6.75;;;2.95;;
74291;SDS011;62687;55.738;37.516;2023-06-14T08:32:12;10.90;;;3.08;;
74291;SDS011;62687;55.738;37.516;2023-06-14T08:34:56;7.55;;;2.88;;
74291;SDS011;62687;55.738;37.516;2023-06-14T08:37:40;6.70;;;3.65;;
74291;SDS011;62687;55.738;37.516;2023-06-14T08:43:09;6.00;;;3.03;;
74291;SDS011;62687;55.738;37.516;2023-06-14T08:45:54;3.90;;;2.35;;
74291;SDS011;62687;55.738;37.516;2023-06-14T08:48:40;7.80;;;2.65;;
74291;SDS011;62687;55.738;37.516;2023-06-14T08:51:25;7.97;;;2.70;;
74291;SDS011;62687;55.738;37.516;2023-06-14T08:54:11;9.73;;;2.80;;
74291;SDS011;62687;55.738;37.516;2023-06-14T08:56:56;9.80;;;3.67;;
74291;SDS011;62687;55.738;37.516;2023-06-14T08:59:47;10.88;;;3.33;;
74291;SDS011;62687;55.738;37.516;2023-06-14T09:02:36;7.47;;;2.95;;
74291;SDS011;62687;55.738;37.516;2023-06-14T09:05:20;13.88;;;3.10;;
74291;SDS011;62687;55.738;37.516;2023-06-14T09:08:04;5.80;;;2.38;;
74291;SDS011;62687;55.738;37.516;2023-06-14T09:10:48;7.88;;;2.60;;
74291;SDS011;62687;55.738;37.516;2023-06-14T09:13:33;9.30;;;3.40;;
74291;SDS011;62687;55.738;37.516;2023-06-14T09:16:17;8.15;;;3.15;;
74291;SDS011;62687;55.738;37.516;2023-06-14T09:19:00;10.18;;;3.17;;
74291;SDS011;62687;55.738;37.516;2023-06-14T09:21:44;7.55;;;2.90;;
74291;SDS011;62687;55.738;37.516;2023-06-14T09:24:30;4.47;;;2.55;;
74291;SDS011;62687;55.738;37.516;2023-06-14T09:27:15;8.88;;;2.55;;
74291;SDS011;62687;55.738;37.516;2023-06-14T09:29:59;8.52;;;3.08;;
74291;SDS011;62687;55.738;37.516;2023-06-14T09:32:43;8.52;;;3.58;;
74291;SDS011;62687;55.738;37.516;2023-06-14T09:35:27;10.05;;;2.92;;
74291;SDS011;62687;55.738;37.516;2023-06-14T09:38:13;7.35;;;3.20;;
74291;SDS011;62687;55.738;37.516;2023-06-14T09:40:58;7.03;;;2.92;;
74291;SDS011;62687;55.738;37.516;2023-06-14T09:43:42;7.22;;;2.88;;
74291;SDS011;62687;55.738;37.516;2023-06-14T09:49:10;5.65;;;2.45;;
74291;SDS011;62687;55.738;37.516;2023-06-14T09:51:54;8.20;;;2.70;;
74291;SDS011;62687;55.738;37.516;2023-06-14T09:54:40;7.47;;;3.53;;
74291;SDS011;62687;55.738;37.516;2023-06-14T09:57:26;9.88;;;3.03;;
74291;SDS011;62687;55.738;37.516;2023-06-14T10:00:13;5.82;;;2.60;;
74291;SDS011;62687;55.738;37.516;2023-06-14T10:03:00;4.35;;;2.22;;
74291;SDS011;62687;55.738;37.516;2023-06-14T10:05:47;10.57;;;2.58;;
74291;SDS011;62687;55.738;37.516;2023-06-14T10:08:31;5.43;;;2.65;;
74291;SDS011;62687;55.738;37.516;2023-06-14T10:11:17;6.40;;;2.42;;
74291;SDS011;62687;55.738;37.516;2023-06-14T10:14:02;5.82;;;2.35;;
74291;SDS011;62687;55.738;37.516;2023-06-14T10:16:59;7.47;;;2.42;;
74291;SDS011;62687;55.738;37.516;2023-06-14T10:19:50;9.15;;;3.28;;
74291;SDS011;62687;55.738;37.516;2023-06-14T10:22:38;8.60;;;2.55;;
74291;SDS011;62687;55.738;37.516;2023-06-14T10:25:28;9.40;;;2.80;;
74291;SDS011;62687;55.738;37.516;2023-06-14T10:28:20;5.10;;;1.95;;
74291;SDS011;62687;55.738;37.516;2023-06-14T10:31:07;9.90;;;2.90;;
74291;SDS011;62687;55.738;37.516;2023-06-14T10:33:58;11.05;;;3.05;;
74291;SDS011;62687;55.738;37.516;2023-06-14T10:36:42;5.40;;;2.50;;
74291;SDS011;62687;55.738;37.516;2023-06-14T10:39:27;5.75;;;2.45;;
74291;SDS011;62687;55.738;37.516;2023-06-14T10:42:11;6.90;;;2.53;;
74291;SDS011;62687;55.738;37.516;2023-06-14T10:44:55;8.15;;;2.50;;
74291;SDS011;62687;55.738;37.516;2023-06-14T10:47:41;8.80;;;2.50;;
74291;SDS011;62687;55.738;37.516;2023-06-14T10:50:28;9.45;;;2.75;;
74291;SDS011;62687;55.738;37.516;2023-06-14T10:53:21;4.43;;;2.30;;
74291;SDS011;62687;55.738;37.516;2023-06-14T10:56:08;5.10;;;2.30;;
74291;SDS011;62687;55.738;37.516;2023-06-14T10:58:52;7.03;;;3.08;;
74291;SDS011;62687;55.738;37.516;2023-06-14T11:01:38;6.13;;;2.38;;
74291;SDS011;62687;55.738;37.516;2023-06-14T11:04:59;4.38;;;2.53;;
74291;SDS011;62687;55.738;37.516;2023-06-14T11:13:04;5.05;;;2.53;;
74291;SDS011;62687;55.738;37.516;2023-06-14T11:15:49;5.22;;;2.50;;
74291;SDS011;62687;55.738;37.516;2023-06-14T11:18:36;10.30;;;3.08;;
74291;SDS011;62687;55.738;37.516;2023-06-14T11:21:20;4.10;;;2.50;;
74291;SDS011;62687;55.738;37.516;2023-06-14T11:24:09;6.68;;;2.72;;
74291;SDS011;62687;55.738;37.516;2023-06-14T11:26:53;4.38;;;2.47;;
74291;SDS011;62687;55.738;37.516;2023-06-14T11:29:47;8.63;;;2.75;;
74291;SDS011;62687;55.738;37.516;2023-06-14T11:32:31;8.20;;;2.45;;
74291;SDS011;62687;55.738;37.516;2023-06-14T11:35:16;11.15;;;2.50;;
74291;SDS011;62687;55.738;37.516;2023-06-14T11:38:01;10.25;;;2.95;;
74291;SDS011;62687;55.738;37.516;2023-06-14T11:40:45;8.30;;;3.03;;
74291;SDS011;62687;55.738;37.516;2023-06-14T11:46:15;9.55;;;2.88;;
74291;SDS011;62687;55.738;37.516;2023-06-14T11:49:01;8.80;;;2.78;;
74291;SDS011;62687;55.738;37.516;2023-06-14T11:51:46;8.95;;;2.90;;
74291;SDS011;62687;55.738;37.516;2023-06-14T11:54:31;11.30;;;2.78;;
74291;SDS011;62687;55.738;37.516;2023-06-14T11:57:17;6.10;;;2.22;;
74291;SDS011;62687;55.738;37.516;2023-06-14T12:00:04;6.03;;;2.63;;
74291;SDS011;62687;55.738;37.516;2023-06-14T12:02:58;5.40;;;2.17;;
74291;SDS011;62687;55.738;37.516;2023-06-14T12:08:32;8.75;;;2.65;;
74291;SDS011;62687;55.738;37.516;2023-06-14T12:11:22;4.15;;;2.05;;
74291;SDS011;62687;55.738;37.516;2023-06-14T12:16:50;9.27;;;2.70;;
74291;SDS011;62687;55.738;37.516;2023-06-14T12:19:41;8.07;;;2.72;;
74291;SDS011;62687;55.738;37.516;2023-06-14T12:22:27;5.57;;;2.35;;
74291;SDS011;62687;55.738;37.516;2023-06-14T12:25:11;8.98;;;2.40;;
74291;SDS011;62687;55.738;37.516;2023-06-14T12:28:07;5.93;;;2.30;;
74291;SDS011;62687;55.738;37.516;2023-06-14T12:30:51;9.27;;;2.90;;
74291;SDS011;62687;55.738;37.516;2023-06-14T12:33:36;7.18;;;2.78;;
74291;SDS011;62687;55.738;37.516;2023-06-14T12:39:04;6.97;;;2.40;;
74291;SDS011;62687;55.738;37.516;2023-06-14T12:41:48;12.63;;;4.50;;
74291;SDS011;62687;55.738;37.516;2023-06-14T12:44:32;4.40;;;2.00;;
74291;SDS011;62687;55.738;37.516;2023-06-14T12:47:19;4.63;;;2.30;;
74291;SDS011;62687;55.738;37.516;2023-06-14T12:52:47;7.88;;;2.83;;
74291;SDS011;62687;55.738;37.516;2023-06-14T12:55:31;8.82;;;2.70;;
74291;SDS011;62687;55.738;37.516;2023-06-14T12:58:15;4.45;;;2.20;;
74291;SDS011;62687;55.738;37.516;2023-06-14T13:01:00;27.50;;;4.25;;
74291;SDS011;62687;55.738;37.516;2023-06-14T13:03:45;7.68;;;2.60;;
74291;SDS011;62687;55.738;37.516;2023-06-14T13:06:29;11.50;;;2.30;;
74291;SDS011;62687;55.738;37.516;2023-06-14T13:09:14;7.43;;;1.88;;
74291;SDS011;62687;55.738;37.516;2023-06-14T13:11:59;7.95;;;2.08;;
74291;SDS011;62687;55.738;37.516;2023-06-14T13:14:43;7.78;;;2.30;;
74291;SDS011;62687;55.738;37.516;2023-06-14T13:20:11;7.45;;;2.65;;
74291;SDS011;62687;55.738;37.516;2023-06-14T13:25:39;15.82;;;2.95;;
74291;SDS011;62687;55.738;37.516;2023-06-14T13:28:23;5.50;;;2.10;;
74291;SDS011;62687;55.738;37.516;2023-06-14T13:33:51;4.40;;;2.17;;
74291;SDS011;62687;55.738;37.516;2023-06-14T13:36:35;5.82;;;2.10;;
74291;SDS011;62687;55.738;37.516;2023-06-14T13:42:03;9.02;;;2.63;;
74291;SDS011;62687;55.738;37.516;2023-06-14T13:44:47;23.83;;;3.90;;
74291;SDS011;62687;55.738;37.516;2023-06-14T13:47:31;81.68;;;7.93;;
74291;SDS011;62687;55.738;37.516;2023-06-14T13:50:15;5.35;;;2.78;;
74291;SDS011;62687;55.738;37.516;2023-06-14T13:55:43;10.82;;;2.45;;
74291;SDS011;62687;55.738;37.516;2023-06-14T13:58:27;9.30;;;2.30;;
74291;SDS011;62687;55.738;37.516;2023-06-14T14:01:12;20.23;;;3.83;;
74291;SDS011;62687;55.738;37.516;2023-06-14T14:06:42;5.25;;;2.70;;
74291;SDS011;62687;55.738;37.516;2023-06-14T14:09:26;8.32;;;2.63;;
74291;SDS011;62687;55.738;37.516;2023-06-14T14:12:10;16.20;;;2.75;;
74291;SDS011;62687;55.738;37.516;2023-06-14T14:14:54;7.18;;;2.13;;
74291;SDS011;62687;55.738;37.516;2023-06-14T14:17:38;6.88;;;1.98;;
74291;SDS011;62687;55.738;37.516;2023-06-14T14:20:23;8.88;;;2.70;;
74291;SDS011;62687;55.738;37.516;2023-06-14T14:23:06;6.35;;;2.00;;
74291;SDS011;62687;55.738;37.516;2023-06-14T14:28:34;7.53;;;2.08;;
74291;SDS011;62687;55.738;37.516;2023-06-14T14:31:18;6.22;;;2.58;;
74291;SDS011;62687;55.738;37.516;2023-06-14T14:34:02;15.13;;;2.97;;
74291;SDS011;62687;55.738;37.516;2023-06-14T14:36:46;16.00;;;3.20;;
74291;SDS011;62687;55.738;37.516;2023-06-14T14:39:30;7.30;;;1.85;;
74291;SDS011;62687;55.738;37.516;2023-06-14T14:42:14;19.33;;;2.97;;
74291;SDS011;62687;55.738;37.516;2023-06-14T14:47:42;61.08;;;6.03;;
74291;SDS011;62687;55.738;37.516;2023-06-14T14:50:26;9.02;;;2.80;;
74291;SDS011;62687;55.738;37.516;2023-06-14T14:53:10;5.88;;;3.10;;
74291;SDS011;62687;55.738;37.516;2023-06-14T14:55:54;6.57;;;2.25;;
74291;SDS011;62687;55.738;37.516;2023-06-14T14:58:38;30.92;;;4.00;;
74291;SDS011;62687;55.738;37.516;2023-06-14T15:01:22;31.98;;;4.72;;
74291;SDS011;62687;55.738;37.516;2023-06-14T15:04:06;11.25;;;2.90;;
74291;SDS011;62687;55.738;37.516;2023-06-14T15:06:50;6.65;;;2.33;;
74291;SDS011;62687;55.738;37.516;2023-06-14T15:09:34;10.15;;;2.83;;
74291;SDS011;62687;55.738;37.516;2023-06-14T15:12:18;9.68;;;2.83;;
74291;SDS011;62687;55.738;37.516;2023-06-14T15:15:03;15.05;;;3.03;;
74291;SDS011;62687;55.738;37.516;2023-06-14T15:17:48;6.75;;;2.65;;
74291;SDS011;62687;55.738;37.516;2023-06-14T15:23:16;17.77;;;3.08;;
74291;SDS011;62687;55.738;37.516;2023-06-14T15:26:03;10.85;;;2.78;;
74291;SDS011;62687;55.738;37.516;2023-06-14T15:28:47;8.43;;;2.67;;
74291;SDS011;62687;55.738;37.516;2023-06-14T15:31:31;7.32;;;2.40;;
74291;SDS011;62687;55.738;37.516;2023-06-14T15:34:15;15.32;;;3.08;;
74291;SDS011;62687;55.738;37.516;2023-06-14T15:36:59;9.50;;;3.25;;
74291;SDS011;62687;55.738;37.516;2023-06-14T15:39:43;14.98;;;3.05;;
74291;SDS011;62687;55.738;37.516;2023-06-14T15:45:11;9.73;;;2.50;;
74291;SDS011;62687;55.738;37.516;2023-06-14T15:47:56;11.13;;;3.05;;
74291;SDS011;62687;55.738;37.516;2023-06-14T15:50:41;7.50;;;2.38;;
74291;SDS011;62687;55.738;37.516;2023-06-14T15:53:25;4.80;;;2.40;;
74291;SDS011;62687;55.738;37.516;2023-06-14T15:56:09;5.20;;;2.10;;
74291;SDS011;62687;55.738;37.516;2023-06-14T15:58:53;15.43;;;2.70;;
74291;SDS011;62687;55.738;37.516;2023-06-14T16:01:37;6.03;;;2.42;;
74291;SDS011;62687;55.738;37.516;2023-06-14T16:07:05;9.05;;;3.00;;
74291;SDS011;62687;55.738;37.516;2023-06-14T16:09:49;7.43;;;3.00;;
74291;SDS011;62687;55.738;37.516;2023-06-14T16:12:33;10.32;;;2.80;;
74291;SDS011;62687;55.738;37.516;2023-06-14T16:15:16;7.80;;;2.83;;
74291;SDS011;62687;55.738;37.516;2023-06-14T16:18:01;6.38;;;2.90;;
74291;SDS011;62687;55.738;37.516;2023-06-14T16:23:30;7.15;;;3.10;;
74291;SDS011;62687;55.738;37.516;2023-06-14T16:26:14;6.82;;;2.90;;
74291;SDS011;62687;55.738;37.516;2023-06-14T16:28:58;10.70;;;3.50;;
74291;SDS011;62687;55.738;37.516;2023-06-14T16:31:42;9.77;;;3.15;;
74291;SDS011;62687;55.738;37.516;2023-06-14T16:34:26;8.88;;;3.22;;
74291;SDS011;62687;55.738;37.516;2023-06-14T16:37:10;8.93;;;3.80;;
74291;SDS011;62687;55.738;37.516;2023-06-14T16:39:54;9.32;;;3.47;;
74291;SDS011;62687;55.738;37.516;2023-06-14T16:42:39;11.55;;;3.42;;
74291;SDS011;62687;55.738;37.516;2023-06-14T16:45:23;11.20;;;3.20;;
74291;SDS011;62687;55.738;37.516;2023-06-14T16:50:51;9.77;;;3.75;;
74291;SDS011;62687;55.738;37.516;2023-06-14T16:53:35;8.95;;;3.25;;
74291;SDS011;62687;55.738;37.516;2023-06-14T16:56:19;6.95;;;3.22;;
74291;SDS011;62687;55.738;37.516;2023-06-14T16:59:03;8.13;;;3.33;;
74291;SDS011;62687;55.738;37.516;2023-06-14T17:01:49;12.13;;;3.58;;
74291;SDS011;62687;55.738;37.516;2023-06-14T17:04:33;9.07;;;2.97;;
74291;SDS011;62687;55.738;37.516;2023-06-14T17:07:17;7.55;;;3.08;;
74291;SDS011;62687;55.738;37.516;2023-06-14T17:10:01;14.10;;;3.22;;
74291;SDS011;62687;55.738;37.516;2023-06-14T17:12:45;7.13;;;2.75;;
74291;SDS011;62687;55.738;37.516;2023-06-14T17:15:29;6.38;;;2.67;;
74291;SDS011;62687;55.738;37.516;2023-06-14T17:18:13;11.93;;;3.53;;
74291;SDS011;62687;55.738;37.516;2023-06-14T17:20:57;12.60;;;3.70;;
74291;SDS011;62687;55.738;37.516;2023-06-14T17:23:41;8.68;;;3.28;;
74291;SDS011;62687;55.738;37.516;2023-06-14T17:26:25;12.40;;;3.20;;
74291;SDS011;62687;55.738;37.516;2023-06-14T17:29:09;8.35;;;3.05;;
74291;SDS011;62687;55.738;37.516;2023-06-14T17:31:53;7.25;;;2.80;;
74291;SDS011;62687;55.738;37.516;2023-06-14T17:34:37;7.72;;;2.88;;